Time;durP1;ratioP1;P1;durP2;ratioP2;P2;SDS_P1;SDS_P2;PMS_P1;PMS_P2;Temp;Humidity;BMP_temperature;BMP_pressure;BME280_temperature;BME280_humidity;BME280_pressure;Samples;Min_cycle;Max_cycle;Signal;HPM_P1;HPM_P2
2023/06/26 00:00:33;;;;;;;8.30;4.90;;;20.30;98.00;;;;;;5014658;28;20510;-67
2023/06/26 00:03:00;;;;;;;8.87;4.43;;;20.30;98.00;;;;;;5013205;28;20499;-67
2023/06/26 00:05:30;;;;;;;7.80;4.20;;;20.30;98.00;;;;;;5014374;28;21015;-67
2023/06/26 00:08:00;;;;;;;8.03;4.17;;;20.30;98.00;;;;;;5014527;28;20460;-67
2023/06/26 00:10:28;;;;;;;9.00;4.23;;;20.50;98.00;;;;;;5013477;28;20482;-67
2023/06/26 00:12:57;;;;;;;7.23;4.10;;;20.30;98.00;;;;;;5014100;28;20828;-67
2023/06/26 00:15:24;;;;;;;7.50;4.67;;;20.10;98.00;;;;;;5014304;28;20467;-67
2023/06/26 00:17:52;;;;;;;7.87;4.73;;;20.10;98.00;;;;;;5014046;28;20491;-67
2023/06/26 00:20:20;;;;;;;7.73;4.50;;;19.90;98.00;;;;;;5012763;28;20459;-67
2023/06/26 00:22:50;;;;;;;9.43;4.97;;;19.90;98.00;;;;;;5014001;28;20456;-67
2023/06/26 00:25:17;;;;;;;9.63;4.70;;;19.70;98.00;;;;;;5014463;28;20464;-67
2023/06/26 00:27:45;;;;;;;8.97;4.50;;;19.60;98.00;;;;;;5014004;28;20803;-67
2023/06/26 00:30:13;;;;;;;9.73;4.70;;;19.50;98.00;;;;;;5014045;28;20942;-67
2023/06/26 00:32:40;;;;;;;9.80;4.53;;;19.40;98.00;;;;;;5012513;28;20479;-67
2023/06/26 00:35:07;;;;;;;8.03;4.30;;;19.30;98.00;;;;;;5013940;28;20509;-66
2023/06/26 00:37:35;;;;;;;8.53;4.90;;;19.20;98.00;;;;;;5012949;28;20871;-67
2023/06/26 00:40:04;;;;;;;8.83;4.60;;;19.20;98.00;;;;;;5013882;28;20798;-67
2023/06/26 00:42:32;;;;;;;10.00;5.00;;;19.30;98.00;;;;;;5013684;28;20503;-67
2023/06/26 00:45:00;;;;;;;7.70;4.50;;;19.20;98.00;;;;;;5012307;28;20466;-67
2023/06/26 00:47:28;;;;;;;8.53;4.30;;;19.10;98.00;;;;;;5013557;28;20451;-67
2023/06/26 00:49:56;;;;;;;10.00;5.40;;;19.00;98.00;;;;;;5012226;28;20467;-67
2023/06/26 00:52:25;;;;;;;9.83;4.70;;;18.80;98.00;;;;;;5013740;28;20459;-67
2023/06/26 00:54:53;;;;;;;9.67;4.97;;;18.90;98.00;;;;;;5013372;28;20456;-67
2023/06/26 00:57:20;;;;;;;7.90;4.60;;;19.10;98.00;;;;;;5013344;28;20483;-67
2023/06/26 00:59:48;;;;;;;9.03;4.50;;;19.10;98.00;;;;;;5013317;28;20470;-67
2023/06/26 01:02:19;;;;;;;8.27;4.60;;;19.10;98.00;;;;;;5013671;28;20459;-67
2023/06/26 01:04:48;;;;;;;8.90;4.30;;;19.10;98.00;;;;;;5013499;28;20465;-67
2023/06/26 01:07:19;;;;;;;9.50;4.93;;;18.90;98.00;;;;;;5011906;28;20487;-67
2023/06/26 01:09:48;;;;;;;8.67;4.13;;;18.80;98.00;;;;;;5013165;28;20462;-67
2023/06/26 01:12:15;;;;;;;9.97;4.90;;;18.70;98.00;;;;;;5011887;28;20456;-67
2023/06/26 01:14:42;;;;;;;8.43;4.60;;;18.90;98.00;;;;;;5013035;28;20451;-67
2023/06/26 01:17:15;;;;;;;8.23;4.30;;;18.90;98.00;;;;;;5012522;28;20453;-66
2023/06/26 01:19:45;;;;;;;9.00;4.67;;;18.70;98.00;;;;;;5011937;28;20456;-67
2023/06/26 01:22:20;;;;;;;11.20;5.10;;;18.70;98.00;;;;;;5012926;28;20456;-67
2023/06/26 01:25:03;;;;;;;9.40;4.40;;;18.70;98.00;;;;;;5012869;28;20669;-67
2023/06/26 01:27:33;;;;;;;8.53;4.30;;;18.60;98.00;;;;;;5012779;28;20810;-67
2023/06/26 01:30:03;;;;;;;9.87;4.90;;;18.60;98.00;;;;;;5012764;28;20881;-67
2023/06/26 01:32:32;;;;;;;7.80;4.17;;;18.60;98.00;;;;;;5013123;28;20463;-67
2023/06/26 01:35:00;;;;;;;8.67;4.50;;;18.70;98.00;;;;;;5011496;28;20455;-67
2023/06/26 01:37:28;;;;;;;9.17;4.37;;;18.60;98.00;;;;;;5012880;28;20853;-67
2023/06/26 01:39:55;;;;;;;11.53;5.20;;;18.40;98.00;;;;;;5012613;28;20463;-66
2023/06/26 01:42:23;;;;;;;8.53;4.90;;;18.40;98.00;;;;;;5011623;28;20971;-67
2023/06/26 01:44:53;;;;;;;8.60;4.10;;;18.40;98.00;;;;;;5012906;28;20476;-67
2023/06/26 01:47:23;;;;;;;9.10;4.73;;;18.40;98.00;;;;;;5012846;28;20562;-67
2023/06/26 01:49:56;;;;;;;10.10;4.87;;;18.40;98.00;;;;;;5012794;28;20456;-67
2023/06/26 01:52:27;;;;;;;8.50;4.60;;;18.40;98.00;;;;;;5012777;28;20980;-66
2023/06/26 01:55:09;;;;;;;9.97;5.10;;;18.30;98.00;;;;;;5012390;28;20469;-66
2023/06/26 01:57:37;;;;;;;9.30;4.40;;;18.10;98.00;;;;;;5012418;28;20498;-67
2023/06/26 02:00:09;;;;;;;12.90;5.37;;;18.20;98.00;;;;;;5012544;28;21266;-66
2023/06/26 02:02:37;;;;;;;9.97;4.33;;;18.20;98.00;;;;;;5012530;28;20459;-67
2023/06/26 02:05:04;;;;;;;8.67;4.50;;;18.10;98.00;;;;;;5012468;28;20451;-67
2023/06/26 02:07:31;;;;;;;8.90;4.30;;;18.10;98.00;;;;;;5012326;28;20456;-67
2023/06/26 02:09:58;;;;;;;9.50;5.03;;;18.20;98.00;;;;;;5012092;28;20462;-67
2023/06/26 02:12:25;;;;;;;9.40;4.77;;;18.20;98.00;;;;;;5012227;28;20470;-66
2023/06/26 02:14:52;;;;;;;8.63;4.43;;;18.10;98.00;;;;;;5012172;28;20459;-66
2023/06/26 02:17:21;;;;;;;10.33;4.60;;;18.00;98.00;;;;;;5012047;28;20447;-67
2023/06/26 02:19:48;;;;;;;9.63;4.57;;;18.00;98.00;;;;;;5010843;28;20818;-67
2023/06/26 02:22:21;;;;;;;10.60;4.60;;;18.00;98.00;;;;;;5012199;28;20509;-67
2023/06/26 02:24:48;;;;;;;10.03;5.20;;;18.20;98.00;;;;;;5012181;28;20460;-67
2023/06/26 02:27:15;;;;;;;10.87;5.10;;;18.20;98.00;;;;;;5012188;28;20482;-66
2023/06/26 02:29:42;;;;;;;9.67;4.70;;;18.00;98.00;;;;;;5012181;28;20455;-67
2023/06/26 02:32:10;;;;;;;7.20;4.17;;;17.80;98.00;;;;;;5012086;28;20459;-66
2023/06/26 02:34:40;;;;;;;16.00;5.03;;;17.90;98.00;;;;;;5012159;28;20468;-67
2023/06/26 02:37:07;;;;;;;8.00;4.03;;;17.90;98.00;;;;;;5010745;28;20881;-66
2023/06/26 02:39:34;;;;;;;8.93;4.40;;;17.80;98.00;;;;;;5012011;28;20515;-67
2023/06/26 02:42:01;;;;;;;9.37;4.77;;;17.80;98.00;;;;;;5012048;28;20510;-66
2023/06/26 02:44:31;;;;;;;8.50;4.60;;;17.80;98.00;;;;;;5010674;28;20483;-66
2023/06/26 02:46:58;;;;;;;8.33;4.67;;;17.70;98.00;;;;;;5010899;28;20977;-67
2023/06/26 02:49:25;;;;;;;8.43;4.10;;;17.90;98.00;;;;;;5012265;28;20578;-66
2023/06/26 02:51:53;;;;;;;13.07;4.70;;;17.80;98.00;;;;;;5011872;28;20463;-66
2023/06/26 02:54:20;;;;;;;10.00;5.30;;;17.80;98.00;;;;;;5012051;28;20483;-66
2023/06/26 02:56:48;;;;;;;8.30;4.30;;;17.70;98.00;;;;;;5011928;28;20459;-66
2023/06/26 02:59:15;;;;;;;8.17;4.80;;;17.70;98.00;;;;;;5011782;28;20480;-66
2023/06/26 03:01:44;;;;;;;9.80;5.10;;;17.80;98.00;;;;;;5014155;28;20855;-66
2023/06/26 03:04:11;;;;;;;8.83;4.57;;;17.60;98.00;;;;;;5015728;28;20462;-66
2023/06/26 03:06:39;;;;;;;9.93;4.63;;;17.50;98.00;;;;;;5015560;28;20463;-66
2023/06/26 03:09:07;;;;;;;8.10;4.47;;;17.60;98.00;;;;;;5015552;28;20869;-66
2023/06/26 03:11:34;;;;;;;12.00;5.60;;;17.60;98.00;;;;;;5015651;28;20466;-66
2023/06/26 03:14:02;;;;;;;13.53;5.60;;;17.40;98.00;;;;;;5015460;28;20805;-66
2023/06/26 03:16:29;;;;;;;8.80;4.37;;;17.50;98.00;;;;;;5015380;28;20466;-66
2023/06/26 03:18:57;;;;;;;9.70;4.80;;;17.40;98.00;;;;;;5015190;28;20545;-66
2023/06/26 03:21:24;;;;;;;8.30;4.63;;;17.30;98.00;;;;;;5014863;28;20459;-66
2023/06/26 03:23:53;;;;;;;9.07;4.77;;;17.30;98.00;;;;;;5015213;28;20463;-66
2023/06/26 03:26:28;;;;;;;12.53;4.87;;;17.30;98.00;;;;;;5015496;28;20846;-66
2023/06/26 03:28:55;;;;;;;11.13;5.03;;;17.20;98.00;;;;;;5015178;28;20482;-66
2023/06/26 03:31:22;;;;;;;9.00;4.43;;;17.20;98.00;;;;;;5015303;28;20459;-66
2023/06/26 03:33:49;;;;;;;11.20;4.73;;;17.20;98.00;;;;;;5015155;28;21053;-66
2023/06/26 03:36:16;;;;;;;9.70;4.80;;;17.00;98.00;;;;;;5015267;28;20451;-66
2023/06/26 03:38:43;;;;;;;8.80;4.50;;;17.10;98.00;;;;;;5015199;28;20549;-66
2023/06/26 03:41:10;;;;;;;13.43;5.10;;;17.10;98.00;;;;;;5015228;28;20478;-67
2023/06/26 03:43:39;;;;;;;8.57;4.40;;;17.10;98.00;;;;;;5014795;28;20470;-67
2023/06/26 03:46:06;;;;;;;7.93;4.20;;;17.20;98.00;;;;;;5015090;28;20466;-66
2023/06/26 03:48:33;;;;;;;9.67;4.30;;;17.20;98.00;;;;;;5014836;28;20459;-66
2023/06/26 03:51:01;;;;;;;9.87;4.80;;;17.20;98.00;;;;;;5014932;28;20869;-66
2023/06/26 03:53:29;;;;;;;8.93;4.73;;;17.30;98.00;;;;;;5014764;28;20475;-66
2023/06/26 03:55:56;;;;;;;10.93;5.20;;;17.30;98.00;;;;;;5014557;28;20452;-67
2023/06/26 03:58:23;;;;;;;8.13;4.47;;;17.30;98.00;;;;;;5014133;28;20483;-67
2023/06/26 04:00:51;;;;;;;9.53;5.00;;;17.30;98.00;;;;;;5014100;28;21075;-66
2023/06/26 04:03:19;;;;;;;8.03;4.30;;;17.30;98.00;;;;;;5013974;28;20459;-66
2023/06/26 04:05:46;;;;;;;11.77;5.07;;;17.30;98.00;;;;;;5013954;28;20559;-66
2023/06/26 04:08:13;;;;;;;7.77;4.00;;;17.30;98.00;;;;;;5013831;28;20463;-66
2023/06/26 04:10:40;;;;;;;8.30;4.20;;;17.40;98.00;;;;;;5013883;28;20456;-67
2023/06/26 04:13:07;;;;;;;9.67;4.97;;;17.50;98.00;;;;;;5012441;28;20462;-66
2023/06/26 04:15:34;;;;;;;9.53;4.70;;;17.60;98.00;;;;;;5013792;28;20870;-66
2023/06/26 04:18:03;;;;;;;9.87;5.47;;;17.60;98.00;;;;;;5012585;28;20447;-67
2023/06/26 04:20:30;;;;;;;9.80;4.70;;;17.70;98.00;;;;;;5014493;28;20475;-67
2023/06/26 04:22:57;;;;;;;8.80;4.30;;;17.60;98.00;;;;;;5013135;28;20566;-66
2023/06/26 04:25:29;;;;;;;9.87;4.60;;;17.60;98.00;;;;;;5014271;28;20518;-67
2023/06/26 04:27:56;;;;;;;10.70;5.00;;;17.60;98.00;;;;;;5014411;28;20549;-67
2023/06/26 04:30:23;;;;;;;8.47;4.40;;;17.70;98.00;;;;;;5013061;28;20463;-67
2023/06/26 04:32:50;;;;;;;16.00;5.20;;;17.80;98.00;;;;;;5012482;28;20455;-66
2023/06/26 04:35:19;;;;;;;8.57;4.90;;;17.80;98.00;;;;;;5012524;28;21177;-67
2023/06/26 04:37:47;;;;;;;8.47;4.60;;;17.90;98.00;;;;;;5014166;28;21256;-66
2023/06/26 04:40:14;;;;;;;9.67;4.50;;;18.10;98.00;;;;;;5012858;28;20501;-66
2023/06/26 04:42:41;;;;;;;8.57;4.80;;;18.20;98.00;;;;;;5014023;28;21016;-66
2023/06/26 04:45:09;;;;;;;9.07;5.17;;;18.20;98.00;;;;;;5012357;28;20471;-66
2023/06/26 04:47:36;;;;;;;9.10;4.37;;;18.30;98.00;;;;;;5013806;28;20877;-66
2023/06/26 04:50:03;;;;;;;9.20;4.57;;;18.30;98.00;;;;;;5013393;28;20529;-66
2023/06/26 04:52:31;;;;;;;8.27;5.10;;;18.20;98.00;;;;;;5012320;28;20448;-66
2023/06/26 04:54:58;;;;;;;8.60;5.00;;;18.20;98.00;;;;;;5013396;28;20448;-66
2023/06/26 04:57:25;;;;;;;9.47;4.67;;;18.20;98.00;;;;;;5013625;28;21114;-66
2023/06/26 04:59:53;;;;;;;8.73;4.80;;;18.20;98.00;;;;;;5013397;28;20487;-66
2023/06/26 05:02:20;;;;;;;9.97;4.40;;;18.20;98.00;;;;;;5013383;28;20452;-66
2023/06/26 05:04:48;;;;;;;11.17;5.27;;;18.30;98.00;;;;;;5013178;28;20467;-66
2023/06/26 05:07:15;;;;;;;11.83;5.23;;;18.50;98.00;;;;;;5013324;28;20452;-66
2023/06/26 05:09:43;;;;;;;8.33;4.67;;;18.50;98.00;;;;;;5013102;28;20455;-67
2023/06/26 05:12:12;;;;;;;9.07;4.73;;;18.60;98.00;;;;;;5013320;28;20456;-66
2023/06/26 05:14:39;;;;;;;9.90;5.33;;;18.70;98.00;;;;;;5012008;28;20985;-66
2023/06/26 05:17:07;;;;;;;10.17;5.00;;;18.70;98.00;;;;;;5012033;28;20502;-66
2023/06/26 05:19:34;;;;;;;7.00;4.40;;;18.70;98.00;;;;;;5013078;28;20491;-67
2023/06/26 05:22:03;;;;;;;10.20;5.37;;;18.80;98.00;;;;;;5013368;28;20532;-67
2023/06/26 05:24:31;;;;;;;8.03;4.63;;;18.80;98.00;;;;;;5012183;28;20459;-66
2023/06/26 05:27:00;;;;;;;9.43;4.73;;;18.90;98.00;;;;;;5012031;28;20463;-66
2023/06/26 05:29:28;;;;;;;10.07;5.20;;;19.00;98.00;;;;;;5013287;28;20463;-67
2023/06/26 05:31:57;;;;;;;8.03;4.30;;;19.10;98.00;;;;;;5013046;28;20466;-66
2023/06/26 05:34:28;;;;;;;10.30;5.10;;;19.30;98.00;;;;;;5012993;28;20451;-66
2023/06/26 05:36:58;;;;;;;12.33;6.60;;;19.40;98.00;;;;;;5013072;28;20464;-67
2023/06/26 05:39:26;;;;;;;9.80;5.43;;;19.50;98.00;;;;;;5012541;28;20495;-67
2023/06/26 05:41:54;;;;;;;8.43;5.07;;;19.80;98.00;;;;;;5012916;28;20474;-67
2023/06/26 05:44:22;;;;;;;10.20;5.10;;;19.80;98.00;;;;;;5011059;28;20961;-66
2023/06/26 05:46:50;;;;;;;10.37;5.40;;;19.90;98.00;;;;;;5012636;28;20455;-67
2023/06/26 05:49:17;;;;;;;10.40;5.20;;;20.10;98.00;;;;;;5012534;28;20482;-67
2023/06/26 05:51:44;;;;;;;8.90;4.67;;;20.10;98.00;;;;;;5012672;28;21213;-66
2023/06/26 05:54:13;;;;;;;9.90;4.70;;;20.20;98.00;;;;;;5011315;28;20509;-66
2023/06/26 05:56:41;;;;;;;11.90;4.97;;;20.20;98.00;;;;;;5011332;28;20551;-66
2023/06/26 05:59:09;;;;;;;11.57;5.00;;;20.30;98.00;;;;;;5012286;28;20480;-67
2023/06/26 06:01:37;;;;;;;9.47;4.80;;;20.40;98.00;;;;;;5012470;28;20576;-66
2023/06/26 06:04:04;;;;;;;10.27;5.00;;;20.50;98.00;;;;;;5012318;28;20777;-63
2023/06/26 06:06:32;;;;;;;9.43;4.83;;;20.60;98.00;;;;;;5010619;28;20832;-63
2023/06/26 06:08:59;;;;;;;11.83;5.23;;;20.70;98.00;;;;;;5012260;28;20451;-63
2023/06/26 06:11:26;;;;;;;9.90;5.13;;;20.90;98.00;;;;;;5012378;28;20772;-63
2023/06/26 06:13:54;;;;;;;9.93;5.40;;;21.00;98.00;;;;;;5012004;28;20461;-63
2023/06/26 06:16:21;;;;;;;12.67;4.97;;;21.00;98.00;;;;;;5010920;28;20459;-63
2023/06/26 06:18:50;;;;;;;11.13;5.17;;;21.20;98.00;;;;;;5010139;28;20965;-64
2023/06/26 06:21:17;;;;;;;9.63;4.80;;;21.30;98.00;;;;;;5012205;28;21029;-65
2023/06/26 06:23:44;;;;;;;7.47;4.00;;;21.40;98.00;;;;;;5011009;28;20475;-65
2023/06/26 06:26:14;;;;;;;10.47;4.80;;;21.70;98.00;;;;;;5012146;28;20941;-64
2023/06/26 06:28:42;;;;;;;8.23;4.77;;;22.00;98.00;;;;;;5012481;28;20518;-65
2023/06/26 06:31:09;;;;;;;8.50;4.87;;;22.30;98.00;;;;;;5012098;28;20530;-65
2023/06/26 06:33:36;;;;;;;10.93;5.30;;;22.50;98.00;;;;;;5012231;28;20455;-64
2023/06/26 06:36:05;;;;;;;9.00;5.07;;;22.70;98.00;;;;;;5013387;28;20462;-65
2023/06/26 06:38:32;;;;;;;10.50;5.27;;;22.90;98.00;;;;;;5016243;28;20463;-65
2023/06/26 06:41:00;;;;;;;8.10;4.93;;;23.10;97.60;;;;;;5015827;28;20487;-64
2023/06/26 06:43:27;;;;;;;8.30;5.40;;;23.40;97.20;;;;;;5016044;28;20470;-64
2023/06/26 06:45:54;;;;;;;9.20;5.20;;;23.40;96.70;;;;;;5015825;28;20979;-65
2023/06/26 06:48:21;;;;;;;10.20;5.70;;;23.60;96.70;;;;;;5016039;28;20459;-64
2023/06/26 06:50:48;;;;;;;9.63;5.77;;;23.80;96.00;;;;;;5016027;28;20456;-64
2023/06/26 06:53:16;;;;;;;8.07;4.90;;;23.90;95.70;;;;;;5015787;28;20467;-64
2023/06/26 06:55:43;;;;;;;10.30;5.30;;;24.00;95.30;;;;;;5015802;28;20506;-64
2023/06/26 06:58:10;;;;;;;9.50;5.10;;;24.10;95.30;;;;;;5015812;28;20451;-64
2023/06/26 07:00:37;;;;;;;11.70;5.70;;;24.10;95.20;;;;;;5015697;28;20487;-64
2023/06/26 07:03:04;;;;;;;9.70;5.20;;;24.20;94.70;;;;;;5015679;28;20474;-65
2023/06/26 07:05:32;;;;;;;13.97;5.97;;;24.40;94.50;;;;;;5015693;28;21022;-64
2023/06/26 07:07:59;;;;;;;9.30;5.20;;;24.60;93.80;;;;;;5015689;28;20466;-64
2023/06/26 07:10:27;;;;;;;11.60;5.70;;;24.60;93.30;;;;;;5015507;28;20942;-65
2023/06/26 07:12:55;;;;;;;8.37;5.03;;;24.70;93.80;;;;;;5015588;28;20459;-65
2023/06/26 07:15:22;;;;;;;9.27;5.30;;;24.80;92.90;;;;;;5015582;28;20499;-64
2023/06/26 07:17:49;;;;;;;8.90;5.30;;;24.90;92.60;;;;;;5015532;28;20981;-64
2023/06/26 07:20:16;;;;;;;11.80;5.30;;;24.90;92.60;;;;;;5015037;28;20486;-64
2023/06/26 07:22:47;;;;;;;9.00;5.50;;;25.00;92.60;;;;;;5015511;28;21121;-64
2023/06/26 07:25:14;;;;;;;9.13;5.50;;;25.00;92.50;;;;;;5015541;28;20459;-64
2023/06/26 07:27:44;;;;;;;10.80;5.60;;;25.10;92.60;;;;;;5015371;28;20463;-64
2023/06/26 07:30:11;;;;;;;12.43;6.10;;;25.20;92.90;;;;;;5015304;28;20497;-65
2023/06/26 07:32:40;;;;;;;12.10;5.77;;;25.30;92.30;;;;;;5015103;28;20450;-65
2023/06/26 07:35:08;;;;;;;12.40;5.87;;;25.50;92.30;;;;;;5013687;28;20479;-65
2023/06/26 07:37:35;;;;;;;9.47;5.80;;;25.70;91.00;;;;;;5013615;28;20497;-65
2023/06/26 07:40:02;;;;;;;9.07;5.67;;;25.80;91.00;;;;;;5014829;28;21116;-65
2023/06/26 07:42:29;;;;;;;9.70;5.50;;;25.90;91.00;;;;;;5014423;28;20873;-65
2023/06/26 07:44:58;;;;;;;11.57;6.13;;;26.00;89.60;;;;;;5012664;28;20541;-65
2023/06/26 07:47:25;;;;;;;10.60;5.47;;;26.20;89.90;;;;;;5013918;28;20513;-65
2023/06/26 07:49:53;;;;;;;10.00;5.57;;;26.20;88.30;;;;;;5013846;28;21032;-65
2023/06/26 07:52:20;;;;;;;13.00;5.70;;;26.30;88.80;;;;;;5014078;28;20460;-65
2023/06/26 07:54:47;;;;;;;11.07;6.13;;;26.50;88.40;;;;;;5013932;28;20448;-66
2023/06/26 07:57:14;;;;;;;9.87;5.70;;;26.60;88.00;;;;;;5013956;28;20525;-64
2023/06/26 07:59:41;;;;;;;9.30;6.07;;;26.60;87.90;;;;;;5013843;28;20487;-66
2023/06/26 08:02:10;;;;;;;8.50;5.37;;;26.80;88.20;;;;;;5013866;28;20455;-64
2023/06/26 08:04:37;;;;;;;9.97;6.07;;;27.00;87.80;;;;;;5013802;28;20642;-64
2023/06/26 08:07:06;;;;;;;9.30;5.53;;;27.10;87.00;;;;;;5013837;28;20458;-64
2023/06/26 08:09:33;;;;;;;10.23;6.00;;;27.20;87.00;;;;;;5013890;28;20486;-66
2023/06/26 08:12:00;;;;;;;10.13;5.80;;;27.30;86.70;;;;;;5013729;28;20460;-64
2023/06/26 08:14:28;;;;;;;10.40;5.90;;;27.40;86.20;;;;;;5013565;28;20459;-65
2023/06/26 08:16:55;;;;;;;10.53;6.03;;;27.50;85.80;;;;;;4996293;28;20478;-65
2023/06/26 08:19:24;;;;;;;9.87;6.00;;;27.60;85.50;;;;;;5013634;28;20466;-65
2023/06/26 08:21:51;;;;;;;11.10;5.47;;;27.80;85.60;;;;;;5013413;28;20521;-64
2023/06/26 08:24:21;;;;;;;10.93;6.40;;;28.00;84.70;;;;;;5012574;28;20455;-65
2023/06/26 08:26:48;;;;;;;9.87;6.00;;;28.10;83.70;;;;;;5012855;28;20492;-66
2023/06/26 08:29:16;;;;;;;9.50;5.70;;;28.30;83.10;;;;;;5012830;28;20456;-65
2023/06/26 08:31:43;;;;;;;10.70;5.63;;;28.30;83.30;;;;;;5013225;28;20463;-66
2023/06/26 08:34:10;;;;;;;10.13;6.27;;;28.40;83.10;;;;;;5013038;28;21009;-64
2023/06/26 08:36:40;;;;;;;9.90;5.80;;;28.50;82.50;;;;;;5013294;28;20455;-65
2023/06/26 08:39:08;;;;;;;10.97;5.83;;;28.50;82.40;;;;;;5013005;28;20448;-67
2023/06/26 08:41:35;;;;;;;10.10;5.53;;;28.60;83.10;;;;;;5012856;28;20927;-65
2023/06/26 08:44:04;;;;;;;9.97;6.07;;;28.80;82.70;;;;;;5012544;28;20518;-65
2023/06/26 08:46:32;;;;;;;9.57;5.83;;;28.90;81.20;;;;;;5012088;28;20451;-64
2023/06/26 08:49:05;;;;;;;9.63;5.97;;;29.10;81.00;;;;;;5010567;28;20521;-67
2023/06/26 08:51:38;;;;;;;9.77;6.10;;;29.10;80.90;;;;;;5011837;28;20842;-66
2023/06/26 08:54:12;;;;;;;9.67;5.93;;;29.20;80.60;;;;;;5011654;28;20464;-65
2023/06/26 08:56:43;;;;;;;8.67;5.47;;;29.30;80.50;;;;;;5012086;28;20455;-66
2023/06/26 08:59:12;;;;;;;9.07;5.90;;;29.50;80.50;;;;;;5010958;28;20966;-64
2023/06/26 09:01:40;;;;;;;10.63;6.40;;;29.50;79.10;;;;;;5011598;28;20935;-65
2023/06/26 09:04:07;;;;;;;8.70;5.60;;;29.60;79.60;;;;;;5011778;28;20455;-65
2023/06/26 09:06:34;;;;;;;10.40;6.20;;;29.60;79.80;;;;;;5011562;28;20459;-65
2023/06/26 09:09:03;;;;;;;10.30;6.33;;;29.70;79.50;;;;;;5011381;28;20463;-67
2023/06/26 09:11:32;;;;;;;8.00;5.50;;;29.70;78.60;;;;;;5010246;28;20455;-66
2023/06/26 09:14:00;;;;;;;8.93;5.30;;;29.70;80.10;;;;;;5011475;28;20448;-67
2023/06/26 09:16:27;;;;;;;10.30;5.87;;;29.70;79.60;;;;;;5011581;28;20550;-67
2023/06/26 09:19:03;;;;;;;10.20;5.80;;;29.80;78.80;;;;;;5011424;28;20470;-65
2023/06/26 09:21:31;;;;;;;8.13;5.30;;;29.90;78.50;;;;;;5011351;28;21071;-66
2023/06/26 09:23:59;;;;;;;8.90;5.40;;;30.10;78.90;;;;;;5011361;28;20447;-65
2023/06/26 09:26:26;;;;;;;9.47;5.63;;;30.20;78.10;;;;;;5011424;28;20464;-65
2023/06/26 09:28:55;;;;;;;10.53;5.93;;;30.30;77.40;;;;;;5011437;28;20456;-66
2023/06/26 09:31:22;;;;;;;10.27;5.90;;;30.10;77.40;;;;;;5011734;28;20459;-67
2023/06/26 09:33:50;;;;;;;8.73;5.90;;;30.20;77.60;;;;;;5011277;28;20497;-67
2023/06/26 09:36:21;;;;;;;9.07;5.17;;;30.40;77.70;;;;;;5011610;28;20451;-66
2023/06/26 09:38:48;;;;;;;9.30;5.70;;;30.60;77.90;;;;;;5011136;28;20977;-67
2023/06/26 09:41:19;;;;;;;9.80;6.13;;;30.80;76.10;;;;;;5011194;28;20530;-66
2023/06/26 09:43:50;;;;;;;8.50;5.20;;;30.80;75.90;;;;;;4967381;28;1228436;-66
2023/06/26 09:46:26;;;;;;;8.97;5.50;;;30.80;75.80;;;;;;5011999;28;20629;-67
2023/06/26 09:48:59;;;;;;;8.03;5.40;;;30.80;75.70;;;;;;5011648;28;20485;-64
2023/06/26 09:51:27;;;;;;;7.17;5.07;;;30.90;75.70;;;;;;5011832;28;20455;-65
2023/06/26 09:53:54;;;;;;;9.23;5.80;;;31.00;75.00;;;;;;5012339;28;20463;-65
2023/06/26 09:56:21;;;;;;;11.60;6.18;;;31.20;75.60;;;;;;5011110;28;20571;-63
2023/06/26 09:58:49;;;;;;;10.53;5.90;;;31.40;74.70;;;;;;5011643;28;20283;-65
2023/06/26 10:01:18;;;;;;;10.40;5.40;;;31.50;75.40;;;;;;5010471;28;20560;-65
2023/06/26 10:03:45;;;;;;;9.20;5.60;;;31.60;74.40;;;;;;5011549;28;20527;-63
2023/06/26 10:06:13;;;;;;;8.60;5.43;;;31.60;74.60;;;;;;5011496;28;20452;-62
2023/06/26 10:08:42;;;;;;;9.30;6.23;;;31.60;73.70;;;;;;5011449;28;21024;-62
2023/06/26 10:11:13;;;;;;;8.90;5.40;;;31.70;74.00;;;;;;5011464;28;20458;-64
2023/06/26 10:13:46;;;;;;;8.70;5.60;;;31.80;73.60;;;;;;5011182;28;20451;-65
2023/06/26 10:16:16;;;;;;;8.50;5.80;;;32.10;74.50;;;;;;5011593;28;20451;-63
2023/06/26 10:18:45;;;;;;;9.70;5.50;;;32.30;73.00;;;;;;5011479;28;20828;-65
2023/06/26 10:21:14;;;;;;;8.57;5.67;;;32.50;72.70;;;;;;5011083;28;20490;-64
2023/06/26 10:23:45;;;;;;;10.07;5.83;;;32.60;72.70;;;;;;5011478;28;20513;-64
2023/06/26 10:26:14;;;;;;;8.60;5.27;;;32.70;72.80;;;;;;5011472;28;21023;-66
2023/06/26 10:28:43;;;;;;;9.50;5.93;;;32.80;72.60;;;;;;5011623;28;20950;-67
2023/06/26 10:31:12;;;;;;;8.80;5.93;;;33.00;72.60;;;;;;5010478;28;20506;-66
2023/06/26 10:33:40;;;;;;;8.77;5.63;;;33.10;72.50;;;;;;5010540;28;20866;-66
2023/06/26 10:36:19;;;;;;;9.27;6.00;;;33.30;72.00;;;;;;5010774;28;20448;-66
2023/06/26 10:38:55;;;;;;;7.87;5.20;;;33.40;71.40;;;;;;5010857;28;21034;-67
2023/06/26 10:41:23;;;;;;;9.70;6.10;;;33.50;71.20;;;;;;5011314;28;20887;-67
2023/06/26 10:43:51;;;;;;;9.90;5.53;;;33.40;70.90;;;;;;5010965;28;20570;-66
2023/06/26 10:46:20;;;;;;;7.73;5.27;;;33.20;71.50;;;;;;5010981;28;20538;-66
2023/06/26 10:49:00;;;;;;;8.67;5.60;;;33.30;72.00;;;;;;5011037;28;20495;-66
2023/06/26 10:51:29;;;;;;;8.67;5.73;;;33.40;71.10;;;;;;5011149;28;20463;-66
2023/06/26 10:53:58;;;;;;;8.80;5.10;;;33.30;71.10;;;;;;5011009;28;20463;-67
2023/06/26 10:56:44;;;;;;;7.77;5.20;;;33.20;71.20;;;;;;5010882;28;20825;-66
2023/06/26 10:59:19;;;;;;;9.43;5.50;;;33.00;71.20;;;;;;5011001;28;20514;-66
2023/06/26 11:01:46;;;;;;;8.33;5.93;;;32.70;72.90;;;;;;5011149;28;20899;-66
2023/06/26 11:04:16;;;;;;;8.90;5.67;;;33.00;72.90;;;;;;5011143;28;20554;-66
2023/06/26 11:06:48;;;;;;;10.37;5.67;;;33.10;72.40;;;;;;5011352;28;20452;-66
2023/06/26 11:09:18;;;;;;;8.73;5.80;;;33.10;72.90;;;;;;5011362;28;20878;-67
2023/06/26 11:12:02;;;;;;;8.60;5.53;;;33.20;73.50;;;;;;5011032;28;20459;-66
2023/06/26 11:14:29;;;;;;;8.37;5.47;;;33.20;73.20;;;;;;5011126;28;20534;-66
2023/06/26 11:16:59;;;;;;;8.80;5.90;;;33.20;72.70;;;;;;5011043;28;20961;-66
2023/06/26 11:19:28;;;;;;;10.60;6.10;;;33.00;73.30;;;;;;5010992;28;20463;-66
2023/06/26 11:22:03;;;;;;;10.23;6.20;;;32.50;73.90;;;;;;5012125;28;20629;-66
2023/06/26 11:24:32;;;;;;;11.10;6.30;;;31.90;74.90;;;;;;5013168;28;20496;-66
2023/06/26 11:27:07;;;;;;;10.80;6.20;;;31.60;75.30;;;;;;5014883;28;20866;-66
2023/06/26 11:29:34;;;;;;;9.37;6.10;;;31.30;76.40;;;;;;5014788;28;20889;-66
2023/06/26 11:32:05;;;;;;;11.50;6.90;;;31.20;76.90;;;;;;5014707;28;20550;-66
2023/06/26 11:34:32;;;;;;;10.53;6.47;;;31.30;77.30;;;;;;5014638;28;20487;-66
2023/06/26 11:37:03;;;;;;;9.53;6.17;;;31.60;75.30;;;;;;5014439;28;20459;-66
2023/06/26 11:39:30;;;;;;;10.90;6.30;;;32.20;75.40;;;;;;5013807;28;20550;-66
2023/06/26 11:41:58;;;;;;;11.23;6.20;;;32.70;74.70;;;;;;5014321;28;20483;-66
2023/06/26 11:44:29;;;;;;;11.70;6.67;;;33.00;73.10;;;;;;5014327;28;20494;-67
2023/06/26 11:46:57;;;;;;;9.30;6.20;;;33.30;73.20;;;;;;5014424;28;20513;-66
2023/06/26 11:49:26;;;;;;;12.40;6.60;;;33.50;72.40;;;;;;5014040;28;20958;-66
2023/06/26 11:51:55;;;;;;;10.20;6.70;;;33.70;72.70;;;;;;5014247;28;20890;-66
2023/06/26 11:54:35;;;;;;;12.50;6.60;;;33.70;72.30;;;;;;5014351;28;21063;-66
2023/06/26 11:57:02;;;;;;;11.07;6.60;;;33.70;72.70;;;;;;5014090;28;20458;-66
2023/06/26 11:59:39;;;;;;;9.10;6.07;;;33.90;72.40;;;;;;5014016;28;20514;-67
2023/06/26 12:02:08;;;;;;;10.20;6.57;;;33.80;73.40;;;;;;5014212;28;20566;-66
2023/06/26 12:04:38;;;;;;;9.90;6.20;;;33.70;73.00;;;;;;5014139;28;20942;-66
2023/06/26 12:07:08;;;;;;;11.30;6.97;;;33.50;74.00;;;;;;5014129;28;20470;-66
2023/06/26 12:09:40;;;;;;;11.33;6.50;;;33.60;74.30;;;;;;5014005;28;20832;-67
2023/06/26 12:12:09;;;;;;;10.10;6.27;;;33.80;73.90;;;;;;5013785;28;20451;-66
2023/06/26 12:14:37;;;;;;;9.43;6.00;;;34.00;74.10;;;;;;5013765;28;20455;-66
2023/06/26 12:17:15;;;;;;;10.10;6.20;;;34.10;73.80;;;;;;5013713;28;20452;-67
2023/06/26 12:19:45;;;;;;;9.70;6.47;;;34.20;73.80;;;;;;5013920;28;20459;-66
2023/06/26 12:22:12;;;;;;;11.47;7.07;;;34.00;74.20;;;;;;5014017;28;20483;-66
2023/06/26 12:24:42;;;;;;;10.37;6.63;;;33.70;74.40;;;;;;5013602;28;20859;-66
2023/06/26 12:27:12;;;;;;;8.50;5.87;;;33.60;75.70;;;;;;5013597;28;20467;-66
2023/06/26 12:29:40;;;;;;;13.57;6.40;;;33.90;74.80;;;;;;5012368;28;20506;-66
2023/06/26 12:32:11;;;;;;;10.93;6.80;;;34.30;75.00;;;;;;5013407;28;20483;-67
2023/06/26 12:34:39;;;;;;;10.57;6.90;;;34.50;74.10;;;;;;5011456;28;20456;-66
2023/06/26 12:37:08;;;;;;;9.60;6.40;;;34.70;73.70;;;;;;5013393;28;20456;-66
2023/06/26 12:40:04;;;;;;;9.50;6.80;;;34.80;73.70;;;;;;5013623;28;20506;-66
2023/06/26 12:42:34;;;;;;;10.33;6.33;;;34.70;73.70;;;;;;5013884;28;20582;-66
2023/06/26 12:45:12;;;;;;;9.70;6.90;;;34.40;74.20;;;;;;5013938;28;20467;-64
2023/06/26 12:47:41;;;;;;;11.43;6.20;;;34.20;74.80;;;;;;5013876;28;20460;-66
2023/06/26 12:50:09;;;;;;;10.67;6.00;;;34.30;75.30;;;;;;5013792;28;20554;-67